Cowansville, Canada
Current Conditions -  °F | °C
As of 11:15 PM on Wednesday 17 Dec 2014 (Local Time) from KFSO Reporting Station
Overcast Overcast  
Wind Chill: 33°   Ceiling: 600
Heat Index: 33°   Visibility: 7mi
Dew Point: 33°   Wind: 0mph
Humidity: 98%   Direction: NA
Pressure: 29.76"   Gusts: NA
Location:  45.2°N, 72.75°W
Report Text: KFSO 180415Z AUTO 00000KT 7SM BKN006 OVC013 01/00 A2976 RMK AO2 T00060003
Loading
Personal Weather Stations






























Interactive Weather Map New forecast layout! Learn more

10-Day Weather Forecast

Advertisements
Track Severe Weather on mobile